Chastang, Alabama
Current Conditions -  °F | °C
As of 11:56 PM on Tuesday 27 Jan 2015 (Local Time) from KMOB Reporting Station
Clear Clear  
Wind Chill: 47°   Ceiling: Unl
Heat Index: 47°   Visibility: 10mi
Dew Point: 34°   Wind: 3mph
Humidity: 61%   Direction: 10°N
Pressure: 30.17"   Gusts: NA
Location:  31.0984°N, 88.056°W
Report Text: KMOB 280556Z AUTO 01003KT 10SM CLR 08/01 A3017 RMK AO2 SLP216 T00830011 10150 20067 402060033 51015
Loading
Personal Weather Stations






























Interactive Weather Map New forecast layout! Learn more

10-Day Weather Forecast

Advertisements
Track Severe Weather on mobile